Kharkov, Ukraine
Current Conditions -  °F | °C
As of 11:30 AM on Friday 28 Nov 2014 (Local Time) from UKHH Reporting Station
Snow Showers Snow Showers  
Wind Chill: 14°   Ceiling: 2000
Heat Index: 25°   Visibility: 1.6mi
Dew Point: 21°   Wind: 11mph
Humidity: 86%   Direction: 90°E
Pressure: 30.36"   Gusts: NA
Location:  49.99°N, 36.21°E
Report Text: UKHH 280830Z 09005MPS 2700 -SHSN SCT010 BKN020CB M04/M06 Q1028 07490140 TEMPO 1100 SHSN SCT003 BKN011CB
Loading
Personal Weather Stations






























Interactive Weather Map New forecast layout! Learn more

10-Day Weather Forecast

Advertisements
Track Severe Weather on mobile